createdAt,value
2022-08-16T00:00:52.258Z,19.32
2022-08-16T00:01:48.973Z,19.34
2022-08-16T00:02:49.096Z,19.34
2022-08-16T00:03:48.915Z,19.35
2022-08-16T00:04:51.108Z,19.37
2022-08-16T00:05:49.090Z,19.39
2022-08-16T00:06:49.887Z,19.39
2022-08-16T00:07:48.874Z,19.35
2022-08-16T00:08:49.876Z,19.32
2022-08-16T00:09:48.837Z,19.27
2022-08-16T00:10:48.857Z,19.22
2022-08-16T00:11:48.816Z,19.15
2022-08-16T00:12:49.075Z,19.08
2022-08-16T00:13:53.465Z,19.11
2022-08-16T00:14:49.787Z,19.12
2022-08-16T00:15:52.211Z,19.16
2022-08-16T00:17:01.478Z,19.16
2022-08-16T00:17:56.343Z,19.17
2022-08-16T00:18:49.735Z,19.20
2022-08-16T00:19:53.305Z,19.22
2022-08-16T00:20:50.739Z,19.26
2022-08-16T00:21:52.207Z,19.29
2022-08-16T00:22:49.673Z,19.30
2022-08-16T00:23:48.658Z,19.34
2022-08-16T00:24:51.423Z,19.35
2022-08-16T00:26:34.464Z,19.35
2022-08-16T00:26:49.622Z,19.35
2022-08-16T00:27:48.609Z,19.32
2022-08-16T00:28:48.598Z,19.32
2022-08-16T00:30:00.722Z,19.24
2022-08-16T00:30:49.594Z,19.20
2022-08-16T00:32:00.683Z,19.16
2022-08-16T00:32:49.774Z,19.07
2022-08-16T00:33:50.108Z,18.97
2022-08-16T00:34:52.704Z,18.92
2022-08-16T00:35:49.490Z,18.89
2022-08-16T00:36:48.499Z,18.89
2022-08-16T00:37:57.668Z,18.86
2022-08-16T00:38:49.451Z,18.83
2022-08-16T00:39:58.200Z,18.83
2022-08-16T00:40:50.960Z,18.79
2022-08-16T00:41:48.431Z,18.76
2022-08-16T00:42:48.683Z,18.70
2022-08-16T00:43:49.390Z,18.68
2022-08-16T00:44:48.380Z,18.68
2022-08-16T00:45:58.302Z,18.66
2022-08-16T00:46:52.980Z,18.64
2022-08-16T00:47:49.869Z,18.64
2022-08-16T00:48:48.329Z,18.66
2022-08-16T00:49:56.223Z,18.67
2022-08-16T00:50:49.292Z,18.67
2022-08-16T00:51:55.094Z,18.67
2022-08-16T00:52:51.318Z,18.67
2022-08-16T00:53:48.252Z,18.64
2022-08-16T00:54:48.242Z,18.66
2022-08-16T00:55:48.231Z,18.64
2022-08-16T00:56:56.495Z,18.66
2022-08-16T00:57:59.609Z,18.66
2022-08-16T00:58:49.191Z,18.64
2022-08-16T00:59:54.864Z,18.60
2022-08-16T01:00:53.986Z,18.55
2022-08-16T01:01:49.153Z,18.51
2022-08-16T01:02:48.984Z,18.46
2022-08-16T01:03:48.121Z,18.45
2022-08-16T01:05:09.275Z,18.46
2022-08-16T01:05:49.081Z,18.43
2022-08-16T01:06:49.097Z,18.41
2022-08-16T01:07:51.193Z,18.42
2022-08-16T01:08:49.054Z,18.42
2022-08-16T01:09:48.034Z,18.42
2022-08-16T01:10:48.035Z,18.45
2022-08-16T01:11:53.800Z,18.42
2022-08-16T01:12:49.225Z,18.37
2022-08-16T01:13:47.985Z,18.30
2022-08-16T01:14:47.974Z,18.26
2022-08-16T01:15:47.961Z,18.21
2022-08-16T01:16:49.164Z,18.16
2022-08-16T01:17:47.944Z,18.16
2022-08-16T01:18:48.924Z,18.18
2022-08-16T01:19:56.963Z,18.19
2022-08-16T01:20:47.910Z,18.24
2022-08-16T01:21:47.902Z,18.28
2022-08-16T01:22:59.085Z,18.31
2022-08-16T01:23:58.499Z,18.34
2022-08-16T01:24:54.102Z,18.37
2022-08-16T01:25:59.965Z,18.36
2022-08-16T01:26:48.831Z,18.36
2022-08-16T01:27:47.811Z,18.33
2022-08-16T01:28:47.789Z,18.33
2022-08-16T01:29:58.196Z,18.33
2022-08-16T01:30:49.423Z,18.34
2022-08-16T01:31:47.762Z,18.31
2022-08-16T01:33:01.734Z,18.33
2022-08-16T01:33:49.698Z,18.30
2022-08-16T01:34:47.751Z,18.31
2022-08-16T01:35:52.906Z,18.33
2022-08-16T01:36:47.704Z,18.30
2022-08-16T01:37:53.136Z,18.28
2022-08-16T01:38:51.246Z,18.27
2022-08-16T01:39:48.666Z,18.27
2022-08-16T01:40:47.642Z,18.27
2022-08-16T01:41:47.622Z,18.24
2022-08-16T01:42:48.185Z,18.19
2022-08-16T01:43:47.614Z,18.16
2022-08-16T01:44:48.573Z,18.18
2022-08-16T01:45:47.551Z,18.18
2022-08-16T01:46:48.551Z,18.18
2022-08-16T01:47:49.492Z,18.21
2022-08-16T01:48:47.515Z,18.23
2022-08-16T01:51:08.153Z,18.23
2022-08-16T01:51:08.296Z,18.26
2022-08-16T01:51:48.474Z,18.26
2022-08-16T01:52:47.747Z,18.27
2022-08-16T01:53:54.524Z,18.27
2022-08-16T01:54:48.432Z,18.24
2022-08-16T01:55:53.830Z,18.24
2022-08-16T01:56:48.403Z,18.24
2022-08-16T01:57:53.169Z,18.19
2022-08-16T01:58:48.371Z,18.16
2022-08-16T01:59:47.377Z,18.18
2022-08-16T02:00:48.354Z,18.18
2022-08-16T02:01:52.530Z,18.18
2022-08-16T02:02:52.520Z,18.19
2022-08-16T02:03:50.479Z,18.19
2022-08-16T02:04:49.028Z,18.23
2022-08-16T02:05:51.930Z,18.24
2022-08-16T02:06:47.274Z,18.23
2022-08-16T02:07:47.269Z,18.21
2022-08-16T02:08:47.275Z,18.19
2022-08-16T02:09:56.935Z,18.16
2022-08-16T02:10:48.216Z,18.13
2022-08-16T02:11:48.412Z,18.09
2022-08-16T02:12:51.629Z,18.09
2022-08-16T02:13:48.246Z,18.09
2022-08-16T02:14:48.146Z,18.12
2022-08-16T02:15:47.166Z,18.12
2022-08-16T02:16:47.129Z,18.12
2022-08-16T02:17:47.128Z,18.08
2022-08-16T02:18:48.124Z,18.02
2022-08-16T02:20:00.037Z,18.00
2022-08-16T02:20:48.082Z,17.95
2022-08-16T02:22:08.584Z,17.94
2022-08-16T02:22:48.345Z,17.91
2022-08-16T02:23:47.067Z,17.91
2022-08-16T02:24:48.017Z,17.90
2022-08-16T02:25:52.844Z,17.88
2022-08-16T02:26:48.007Z,17.88
2022-08-16T02:27:50.662Z,17.91
2022-08-16T02:28:47.364Z,17.91
2022-08-16T02:29:46.975Z,17.91
2022-08-16T02:30:50.875Z,17.90
2022-08-16T02:32:04.030Z,17.90
2022-08-16T02:32:51.266Z,17.88
2022-08-16T02:33:49.973Z,17.88
2022-08-16T02:34:46.888Z,17.88
2022-08-16T02:35:54.074Z,17.87
2022-08-16T02:36:49.948Z,17.84
2022-08-16T02:37:53.036Z,17.78
2022-08-16T02:38:47.858Z,17.68
2022-08-16T02:39:46.904Z,17.60
2022-08-16T02:40:47.808Z,17.59
2022-08-16T02:41:46.913Z,17.59
2022-08-16T02:42:49.743Z,17.59
2022-08-16T02:43:46.786Z,17.66
2022-08-16T02:44:46.758Z,17.69
2022-08-16T02:45:46.745Z,17.75
2022-08-16T02:46:50.471Z,17.78
2022-08-16T02:48:01.430Z,17.80
2022-08-16T02:48:49.272Z,17.82
2022-08-16T02:50:52.438Z,17.80
2022-08-16T02:50:53.545Z,17.80
2022-08-16T02:51:47.659Z,17.76
2022-08-16T02:52:46.702Z,17.75
2022-08-16T02:53:46.693Z,17.75
2022-08-16T02:54:46.633Z,17.76
2022-08-16T02:55:50.529Z,17.72
2022-08-16T02:56:47.898Z,17.72
2022-08-16T02:57:53.916Z,17.73
2022-08-16T02:58:47.722Z,17.73
2022-08-16T02:59:46.559Z,17.73
2022-08-16T03:00:50.167Z,17.71
2022-08-16T03:01:46.586Z,17.66
2022-08-16T03:02:46.747Z,17.57
2022-08-16T03:04:39.439Z,17.52
2022-08-16T03:04:52.473Z,17.42
2022-08-16T03:05:49.933Z,17.37
2022-08-16T03:06:47.460Z,17.35
2022-08-16T03:07:50.639Z,17.35
2022-08-16T03:08:50.677Z,17.34
2022-08-16T03:09:47.451Z,17.34
2022-08-16T03:10:46.442Z,17.34
2022-08-16T03:11:46.403Z,17.37
2022-08-16T03:12:56.013Z,17.37
2022-08-16T03:13:47.538Z,17.38
2022-08-16T03:14:46.352Z,17.38
2022-08-16T03:15:46.342Z,17.39
2022-08-16T03:16:59.212Z,17.39
2022-08-16T03:17:53.174Z,17.38
2022-08-16T03:18:47.316Z,17.37
2022-08-16T03:19:48.028Z,17.38
2022-08-16T03:20:55.651Z,17.38
2022-08-16T03:21:47.263Z,17.39
2022-08-16T03:22:46.368Z,17.38
2022-08-16T03:23:46.253Z,17.41
2022-08-16T03:24:46.243Z,17.38
2022-08-16T03:25:48.397Z,17.35
2022-08-16T03:26:46.316Z,17.34
2022-08-16T03:27:46.186Z,17.32
2022-08-16T03:28:46.162Z,17.31
2022-08-16T03:29:54.400Z,17.32
2022-08-16T03:30:47.581Z,17.31
2022-08-16T03:31:46.136Z,17.31
2022-08-16T03:32:51.126Z,17.31
2022-08-16T03:33:46.103Z,17.28
2022-08-16T03:34:49.902Z,17.23
2022-08-16T03:35:46.084Z,17.20
2022-08-16T03:36:46.062Z,17.23
2022-08-16T03:38:01.634Z,17.24
2022-08-16T03:38:47.032Z,17.19
2022-08-16T03:39:46.070Z,17.16
2022-08-16T03:40:46.004Z,17.13
2022-08-16T03:41:50.200Z,17.13
2022-08-16T03:43:19.043Z,17.14
2022-08-16T03:43:50.613Z,17.14
2022-08-16T03:44:47.640Z,17.16
2022-08-16T03:45:45.932Z,17.16
2022-08-16T03:46:50.089Z,17.12
2022-08-16T03:47:45.915Z,17.07
2022-08-16T03:48:45.936Z,17.04
2022-08-16T03:49:45.884Z,17.05
2022-08-16T03:51:00.152Z,17.04
2022-08-16T03:51:46.857Z,17.01
2022-08-16T03:52:45.985Z,16.99
2022-08-16T03:53:45.846Z,16.98
2022-08-16T03:54:57.547Z,16.98
2022-08-16T03:55:46.802Z,17.01
2022-08-16T03:56:57.068Z,17.04
2022-08-16T03:57:52.248Z,17.04
2022-08-16T03:58:48.389Z,17.02
2022-08-16T03:59:45.755Z,17.02
2022-08-16T04:00:45.781Z,17.01
2022-08-16T04:01:45.790Z,17.04
2022-08-16T04:02:46.898Z,17.05
2022-08-16T04:03:45.696Z,17.07
2022-08-16T04:04:45.696Z,17.05
2022-08-16T04:05:46.760Z,16.99
2022-08-16T04:06:45.656Z,16.95
2022-08-16T04:07:45.654Z,16.92
2022-08-16T04:08:45.628Z,16.87
2022-08-16T04:09:45.691Z,16.83
2022-08-16T04:10:45.607Z,16.83
2022-08-16T04:11:46.588Z,16.79
2022-08-16T04:13:04.146Z,16.76
2022-08-16T04:14:00.533Z,16.73
2022-08-16T04:14:48.104Z,16.73
2022-08-16T04:15:45.548Z,16.73
2022-08-16T04:16:45.549Z,16.73
2022-08-16T04:17:45.520Z,16.74
2022-08-16T04:18:46.141Z,16.76
2022-08-16T04:19:46.687Z,16.74
2022-08-16T04:20:45.477Z,16.73
2022-08-16T04:21:45.872Z,16.76
2022-08-16T04:22:45.483Z,16.76
2022-08-16T04:23:45.435Z,16.76
2022-08-16T04:24:55.095Z,16.77
2022-08-16T04:25:47.068Z,16.79
2022-08-16T04:26:46.064Z,16.82
2022-08-16T04:27:55.818Z,16.84
2022-08-16T04:28:55.685Z,16.86
2022-08-16T04:29:46.628Z,16.87
2022-08-16T04:30:45.329Z,16.91
2022-08-16T04:31:45.329Z,16.94
2022-08-16T04:32:49.208Z,16.97
2022-08-16T04:33:50.740Z,16.98
2022-08-16T04:34:46.323Z,17.02
2022-08-16T04:35:45.279Z,17.05
2022-08-16T04:36:45.270Z,17.05
2022-08-16T04:37:45.251Z,17.07
2022-08-16T04:38:45.240Z,17.09
2022-08-16T04:39:47.405Z,17.07
2022-08-16T04:40:46.241Z,17.09
2022-08-16T04:41:45.205Z,17.09
2022-08-16T04:42:45.192Z,17.05
2022-08-16T04:43:45.171Z,17.07
2022-08-16T04:44:54.397Z,17.05
2022-08-16T04:45:46.152Z,17.04
2022-08-16T04:47:02.627Z,17.01
2022-08-16T04:47:46.122Z,16.98
2022-08-16T04:48:46.112Z,16.94
2022-08-16T04:49:46.093Z,16.94
2022-08-16T04:50:45.121Z,16.95
2022-08-16T04:51:45.083Z,16.97
2022-08-16T04:52:46.097Z,16.98
2022-08-16T04:53:45.045Z,16.98
2022-08-16T04:54:45.042Z,16.99
2022-08-16T04:55:45.024Z,17.02
2022-08-16T04:56:46.276Z,17.09
2022-08-16T04:57:45.000Z,17.10
2022-08-16T04:58:47.081Z,17.14
2022-08-16T04:59:44.989Z,17.12
2022-08-16T05:00:44.952Z,17.12
2022-08-16T05:01:58.191Z,17.13
2022-08-16T05:02:45.963Z,17.13
2022-08-16T05:04:00.210Z,17.14
2022-08-16T05:04:45.948Z,17.17
2022-08-16T05:05:55.872Z,17.19
2022-08-16T05:06:46.216Z,17.19
2022-08-16T05:07:58.346Z,17.19
2022-08-16T05:08:47.383Z,17.17
2022-08-16T05:09:48.986Z,17.20
2022-08-16T05:10:44.814Z,17.23
2022-08-16T05:11:44.803Z,17.27
2022-08-16T05:12:44.903Z,17.24
2022-08-16T05:13:44.794Z,17.23
2022-08-16T05:14:46.574Z,17.23
2022-08-16T05:15:45.754Z,17.23
2022-08-16T05:16:44.736Z,17.22
2022-08-16T05:17:44.734Z,17.23
2022-08-16T05:18:44.716Z,17.24
2022-08-16T05:19:46.515Z,17.30
2022-08-16T05:20:54.026Z,17.32
2022-08-16T05:21:45.676Z,17.34
2022-08-16T05:22:44.703Z,17.35
2022-08-16T05:23:51.597Z,17.37
2022-08-16T05:24:45.652Z,17.37
2022-08-16T05:25:48.325Z,17.37
2022-08-16T05:26:49.600Z,17.35
2022-08-16T05:27:47.773Z,17.32
2022-08-16T05:28:46.199Z,17.34
2022-08-16T05:29:57.666Z,17.35
2022-08-16T05:30:45.565Z,17.39
2022-08-16T05:31:48.224Z,17.41
2022-08-16T05:32:45.895Z,17.44
2022-08-16T05:33:44.525Z,17.49
2022-08-16T05:34:45.527Z,17.50
2022-08-16T05:35:44.498Z,17.50
2022-08-16T05:36:45.467Z,17.52
2022-08-16T05:37:44.486Z,17.54
2022-08-16T05:38:44.438Z,17.60
2022-08-16T05:39:44.492Z,17.65
2022-08-16T05:40:59.603Z,17.69
2022-08-16T05:41:45.983Z,17.72
2022-08-16T05:42:47.795Z,17.73
2022-08-16T05:43:46.786Z,17.78
2022-08-16T05:44:44.368Z,17.76
2022-08-16T05:45:44.385Z,17.79
2022-08-16T05:46:45.337Z,17.82
2022-08-16T05:47:44.325Z,17.84
2022-08-16T05:48:44.315Z,17.87
2022-08-16T05:49:45.306Z,17.88
2022-08-16T05:50:45.311Z,17.90
2022-08-16T05:51:45.727Z,17.91
2022-08-16T05:52:44.896Z,17.94
2022-08-16T05:53:44.249Z,17.97
2022-08-16T05:54:47.491Z,18.02
2022-08-16T05:55:44.251Z,18.05
2022-08-16T05:56:44.201Z,18.06
2022-08-16T05:57:45.219Z,18.06
2022-08-16T05:58:45.186Z,18.11
2022-08-16T05:59:44.167Z,18.12
2022-08-16T06:00:44.159Z,18.15
2022-08-16T06:01:44.166Z,18.19
2022-08-16T06:02:44.179Z,18.21
2022-08-16T06:03:44.132Z,18.26
2022-08-16T06:04:44.878Z,18.28
2022-08-16T06:05:44.109Z,18.31
2022-08-16T06:06:55.877Z,18.31
2022-08-16T06:07:45.070Z,18.33
2022-08-16T06:08:46.442Z,18.36
2022-08-16T06:09:44.664Z,18.39
2022-08-16T06:11:02.573Z,18.41
2022-08-16T06:11:45.020Z,18.42
2022-08-16T06:12:44.068Z,18.43
2022-08-16T06:13:44.011Z,18.46
2022-08-16T06:14:44.012Z,18.48
2022-08-16T06:15:43.982Z,18.49
2022-08-16T06:16:43.934Z,18.53
2022-08-16T06:17:44.613Z,18.55
2022-08-16T06:18:43.931Z,18.58
2022-08-16T06:19:44.681Z,18.63
2022-08-16T06:20:55.238Z,18.66
2022-08-16T06:21:44.873Z,18.70
2022-08-16T06:22:44.622Z,18.71
2022-08-16T06:23:43.842Z,18.71
2022-08-16T06:24:53.374Z,18.74
2022-08-16T06:25:52.995Z,18.76
2022-08-16T06:26:45.003Z,18.79
2022-08-16T06:27:57.455Z,18.82
2022-08-16T06:28:44.780Z,18.85
2022-08-16T06:29:43.763Z,18.88
2022-08-16T06:30:45.373Z,18.91
2022-08-16T06:31:49.176Z,18.92
2022-08-16T06:32:48.456Z,18.92
2022-08-16T06:33:44.676Z,18.89
2022-08-16T06:34:56.044Z,18.89
2022-08-16T06:35:44.675Z,18.91
2022-08-16T06:36:43.703Z,18.91
2022-08-16T06:37:47.555Z,18.94
2022-08-16T06:38:52.301Z,18.98
2022-08-16T06:39:49.187Z,19.04
2022-08-16T06:40:49.292Z,19.08
2022-08-16T06:41:43.605Z,19.11
2022-08-16T06:42:47.978Z,19.11
2022-08-16T06:43:43.585Z,19.11
2022-08-16T06:44:43.571Z,19.15
2022-08-16T06:45:43.776Z,19.19
2022-08-16T06:46:43.535Z,19.24
2022-08-16T06:47:54.445Z,19.29
2022-08-16T06:48:48.318Z,19.32
2022-08-16T06:49:52.904Z,19.37
2022-08-16T06:50:44.516Z,19.41
2022-08-16T06:51:46.419Z,19.45
2022-08-16T06:52:57.997Z,19.48
2022-08-16T06:53:44.455Z,19.53
2022-08-16T06:54:43.424Z,19.57
2022-08-16T06:55:44.435Z,19.60
2022-08-16T06:56:43.455Z,19.64
2022-08-16T06:57:43.399Z,19.66
2022-08-16T06:58:43.378Z,19.70
2022-08-16T06:59:52.198Z,19.71
2022-08-16T07:00:44.421Z,19.72
2022-08-16T07:01:53.649Z,19.74
2022-08-16T07:02:51.290Z,19.77
2022-08-16T07:03:54.970Z,19.79
2022-08-16T07:04:44.296Z,19.82
2022-08-16T07:05:43.319Z,19.87
2022-08-16T07:06:43.544Z,19.92
2022-08-16T07:07:43.257Z,19.94
2022-08-16T07:08:43.247Z,19.97
2022-08-16T07:09:43.228Z,20.03
2022-08-16T07:10:43.246Z,20.07
2022-08-16T07:11:45.738Z,20.10
2022-08-16T07:12:47.051Z,20.12
2022-08-16T07:14:03.894Z,20.15
2022-08-16T07:14:44.178Z,20.22
2022-08-16T07:15:50.062Z,20.26
2022-08-16T07:16:44.169Z,20.29
2022-08-16T07:17:43.118Z,20.30
2022-08-16T07:18:59.295Z,20.34
2022-08-16T07:20:47.370Z,20.40
2022-08-16T07:21:46.143Z,20.44
2022-08-16T07:22:42.793Z,20.48
2022-08-16T07:23:42.783Z,20.50
2022-08-16T07:24:45.981Z,20.55
2022-08-16T07:25:41.751Z,20.59
2022-08-16T07:26:41.742Z,20.64
2022-08-16T07:27:42.765Z,20.66
2022-08-16T07:28:41.712Z,20.70
2022-08-16T07:29:41.701Z,20.71
2022-08-16T07:30:46.412Z,20.74
2022-08-16T07:31:42.692Z,20.77
2022-08-16T07:32:41.688Z,20.78
2022-08-16T07:33:53.775Z,20.82
2022-08-16T07:34:48.307Z,20.85
2022-08-16T07:35:44.434Z,20.88
2022-08-16T07:36:42.614Z,20.90
2022-08-16T07:37:41.605Z,20.92
2022-08-16T07:38:41.565Z,20.95
2022-08-16T07:39:43.087Z,20.98
2022-08-16T07:41:00.713Z,21.01
2022-08-16T07:41:42.551Z,21.04
2022-08-16T07:42:41.515Z,21.05
2022-08-16T07:43:41.733Z,21.08
2022-08-16T07:44:50.259Z,21.13
2022-08-16T07:45:43.193Z,21.15
2022-08-16T07:46:41.476Z,21.17
2022-08-16T07:47:42.049Z,21.25
2022-08-16T07:48:41.435Z,21.28
2022-08-16T07:49:53.119Z,21.35
2022-08-16T07:50:56.185Z,21.38
2022-08-16T07:51:42.432Z,21.41
2022-08-16T07:52:41.396Z,21.44
2022-08-16T07:53:43.626Z,21.45
2022-08-16T07:54:45.718Z,21.48
2022-08-16T07:55:47.863Z,21.50
2022-08-16T07:56:42.347Z,21.51
2022-08-16T07:57:55.901Z,21.56
2022-08-16T07:58:42.302Z,21.58
2022-08-16T07:59:42.865Z,21.58
2022-08-16T08:00:42.311Z,21.60
2022-08-16T08:01:41.278Z,21.62
2022-08-16T08:02:41.277Z,21.63
2022-08-16T08:03:44.918Z,21.68
2022-08-16T08:04:42.216Z,21.68
2022-08-16T08:05:41.275Z,21.68
2022-08-16T08:06:41.207Z,21.70
2022-08-16T08:07:45.250Z,21.74
2022-08-16T08:08:50.145Z,21.75
2022-08-16T08:09:43.507Z,21.78
2022-08-16T08:10:41.139Z,21.83
2022-08-16T08:11:41.158Z,21.89
2022-08-16T08:12:43.789Z,21.91
2022-08-16T08:13:42.539Z,21.92
2022-08-16T08:14:41.091Z,21.97
2022-08-16T08:15:52.490Z,21.97
2022-08-16T08:16:45.366Z,21.96
2022-08-16T08:17:43.136Z,21.97
2022-08-16T08:18:41.044Z,22.00
2022-08-16T08:19:42.038Z,22.03
2022-08-16T08:20:42.011Z,22.04
2022-08-16T08:21:59.635Z,22.07
2022-08-16T08:22:41.982Z,22.10
2022-08-16T08:23:42.522Z,22.14
2022-08-16T08:24:43.943Z,22.16
2022-08-16T08:25:54.848Z,22.18
2022-08-16T08:26:43.017Z,22.19
2022-08-16T08:27:40.922Z,22.22
2022-08-16T08:28:40.902Z,22.25
2022-08-16T08:29:40.901Z,22.28
2022-08-16T08:30:51.144Z,22.31
2022-08-16T08:31:41.901Z,22.34
2022-08-16T08:32:58.624Z,22.37
2022-08-16T08:33:46.688Z,22.38
2022-08-16T08:34:41.824Z,22.41
2022-08-16T08:35:40.819Z,22.43
2022-08-16T08:36:40.816Z,22.46
2022-08-16T08:37:54.763Z,22.43
2022-08-16T08:38:44.962Z,22.43
2022-08-16T08:39:54.690Z,22.46
2022-08-16T08:40:41.733Z,22.51
2022-08-16T08:41:40.755Z,22.55
2022-08-16T08:42:40.743Z,22.59
2022-08-16T08:43:41.828Z,22.61
2022-08-16T08:44:40.693Z,22.65
2022-08-16T08:45:48.092Z,22.71
2022-08-16T08:46:41.684Z,22.76
2022-08-16T08:47:40.654Z,22.80
2022-08-16T08:48:43.921Z,22.81
2022-08-16T08:49:50.319Z,22.86
2022-08-16T08:50:41.609Z,22.88
2022-08-16T08:51:41.634Z,22.92
2022-08-16T08:52:40.746Z,22.96
2022-08-16T08:53:40.573Z,23.01
2022-08-16T08:54:40.552Z,23.01
2022-08-16T08:55:40.565Z,23.06
2022-08-16T08:56:45.317Z,23.06
2022-08-16T08:57:41.525Z,23.11
2022-08-16T08:58:40.503Z,23.17
2022-08-16T08:59:41.518Z,23.21
2022-08-16T09:00:50.386Z,23.29
2022-08-16T09:01:56.696Z,23.36
2022-08-16T09:02:41.522Z,23.40
2022-08-16T09:03:40.493Z,23.45
2022-08-16T09:04:40.424Z,23.51
2022-08-16T09:05:40.414Z,23.55
2022-08-16T09:06:43.738Z,23.58
2022-08-16T09:08:01.746Z,23.62
2022-08-16T09:08:41.358Z,23.62
2022-08-16T09:09:41.409Z,23.62
2022-08-16T09:10:40.898Z,23.59
2022-08-16T09:11:41.023Z,23.63
2022-08-16T09:12:40.338Z,23.64
2022-08-16T09:13:47.353Z,23.64
2022-08-16T09:14:49.440Z,23.66
2022-08-16T09:15:41.268Z,23.69
2022-08-16T09:17:01.627Z,23.70
2022-08-16T09:17:51.481Z,23.71
2022-08-16T09:18:41.259Z,23.71
2022-08-16T09:19:40.850Z,23.73
2022-08-16T09:20:59.527Z,23.74
2022-08-16T09:21:41.204Z,23.76
2022-08-16T09:22:40.208Z,23.77
2022-08-16T09:23:40.168Z,23.77
2022-08-16T09:24:52.910Z,23.79
2022-08-16T09:25:41.142Z,23.82
2022-08-16T09:26:44.723Z,23.86
2022-08-16T09:27:57.290Z,23.89
2022-08-16T09:29:15.751Z,23.92
2022-08-16T09:29:45.232Z,23.95
2022-08-16T09:30:44.344Z,23.95
2022-08-16T09:31:41.920Z,23.96
2022-08-16T09:32:40.059Z,23.96
2022-08-16T09:33:41.048Z,24.00
2022-08-16T09:34:40.011Z,24.04
2022-08-16T09:35:42.550Z,24.14
2022-08-16T09:36:46.159Z,24.24
2022-08-16T09:37:40.988Z,24.25
2022-08-16T09:38:40.744Z,24.29
2022-08-16T09:39:41.430Z,24.32
2022-08-16T09:40:42.419Z,24.34
2022-08-16T09:41:39.924Z,24.37
2022-08-16T09:42:55.862Z,24.38
2022-08-16T09:43:59.294Z,24.37
2022-08-16T09:45:11.995Z,24.43
2022-08-16T09:45:40.873Z,24.44
2022-08-16T09:46:49.055Z,24.47
2022-08-16T09:47:56.631Z,24.51
2022-08-16T09:48:44.844Z,24.53
2022-08-16T09:49:41.363Z,24.59
2022-08-16T09:50:39.930Z,24.61
2022-08-16T09:51:39.793Z,24.62
2022-08-16T09:52:44.416Z,24.62
2022-08-16T09:53:40.763Z,24.63
2022-08-16T09:54:39.750Z,24.65
2022-08-16T09:55:44.495Z,24.69
2022-08-16T09:56:52.335Z,24.74
2022-08-16T09:57:40.723Z,24.78
2022-08-16T09:59:05.169Z,24.79
2022-08-16T09:59:42.119Z,24.81
2022-08-16T10:00:44.991Z,24.85
2022-08-16T10:01:43.385Z,24.85
2022-08-16T10:02:44.221Z,24.92
2022-08-16T10:04:01.732Z,24.96
2022-08-16T10:04:54.895Z,24.99
2022-08-16T10:05:40.605Z,25.01
2022-08-16T10:06:39.584Z,25.01
2022-08-16T10:07:44.938Z,25.03
2022-08-16T10:09:04.348Z,25.04
2022-08-16T10:09:44.761Z,25.09
2022-08-16T10:10:40.540Z,25.12
2022-08-16T10:11:50.293Z,25.18
2022-08-16T10:12:42.554Z,25.19
2022-08-16T10:13:39.504Z,25.22
2022-08-16T10:14:39.477Z,25.25
2022-08-16T10:15:40.475Z,25.26
2022-08-16T10:16:39.459Z,25.29
2022-08-16T10:17:39.470Z,25.29
2022-08-16T10:18:56.070Z,25.29
2022-08-16T10:19:40.418Z,25.31
2022-08-16T10:20:39.389Z,25.36
2022-08-16T10:21:39.475Z,25.41
2022-08-16T10:22:39.377Z,25.46
2022-08-16T10:23:39.379Z,25.52
2022-08-16T10:24:39.362Z,25.61
2022-08-16T10:27:17.537Z,25.70
2022-08-16T10:27:18.015Z,25.76
2022-08-16T10:27:47.282Z,25.80
2022-08-16T10:28:41.877Z,25.83
2022-08-16T10:29:59.954Z,25.83
2022-08-16T10:30:40.265Z,25.85
2022-08-16T10:31:44.241Z,25.88
2022-08-16T10:32:40.260Z,25.89
2022-08-16T10:33:40.261Z,25.93
2022-08-16T10:34:39.190Z,25.95
2022-08-16T10:35:46.624Z,25.98
2022-08-16T10:36:40.180Z,25.99
2022-08-16T10:37:39.190Z,26.04
2022-08-16T10:38:39.157Z,26.07
2022-08-16T10:39:41.696Z,26.13
2022-08-16T10:40:39.161Z,26.15
2022-08-16T10:41:40.112Z,26.18
2022-08-16T10:42:39.130Z,26.26
2022-08-16T10:43:39.095Z,26.31
2022-08-16T10:44:39.073Z,26.37
2022-08-16T10:45:39.072Z,26.46
2022-08-16T10:46:41.785Z,26.46
2022-08-16T10:47:39.059Z,26.45
2022-08-16T10:48:39.108Z,26.46
2022-08-16T10:49:39.015Z,26.46
2022-08-16T10:50:39.000Z,26.49
2022-08-16T10:52:01.059Z,26.52
2022-08-16T10:53:39.548Z,26.61
2022-08-16T10:54:58.723Z,26.66
2022-08-16T10:55:40.469Z,26.73
2022-08-16T10:56:52.749Z,26.83
2022-08-16T10:57:39.918Z,26.88
2022-08-16T10:58:38.893Z,26.93
2022-08-16T10:59:51.781Z,26.97
2022-08-16T11:00:39.865Z,27.01
2022-08-16T11:01:43.639Z,27.07
2022-08-16T11:02:58.566Z,27.07
2022-08-16T11:03:43.188Z,27.10
2022-08-16T11:06:39.913Z,27.10
2022-08-16T11:07:52.174Z,27.10
2022-08-16T11:08:43.341Z,27.08
2022-08-16T11:09:43.214Z,27.10
2022-08-16T11:12:13.322Z,27.16
2022-08-16T11:12:39.821Z,27.20
2022-08-16T11:14:39.862Z,27.29
2022-08-16T11:15:38.677Z,27.34
2022-08-16T11:17:39.672Z,27.43
2022-08-16T11:18:48.272Z,27.52
2022-08-16T11:20:42.083Z,27.72
2022-08-16T11:22:23.390Z,27.79
2022-08-16T11:22:48.457Z,27.85
2022-08-16T11:23:39.559Z,27.88
2022-08-16T11:24:43.350Z,27.88
2022-08-16T11:26:39.539Z,27.94
2022-08-16T11:27:38.529Z,27.98
2022-08-16T11:29:39.497Z,27.93
2022-08-16T11:30:39.323Z,27.94
2022-08-16T11:31:38.452Z,27.95
2022-08-16T11:32:38.461Z,28.00
2022-08-16T11:33:55.058Z,28.01
2022-08-16T11:35:05.703Z,27.95
2022-08-16T11:36:39.442Z,27.82
2022-08-16T11:38:51.740Z,27.81
2022-08-16T11:39:39.473Z,27.81
2022-08-16T11:40:38.462Z,27.81
2022-08-16T11:41:38.343Z,27.79
2022-08-16T11:42:39.322Z,27.82
2022-08-16T11:43:38.351Z,27.86
2022-08-16T11:44:52.016Z,27.91
2022-08-16T11:45:39.265Z,27.86
2022-08-16T11:46:42.894Z,27.78
2022-08-16T11:47:39.252Z,27.71
2022-08-16T11:48:38.273Z,27.78
2022-08-16T11:49:38.246Z,27.88
2022-08-16T11:50:38.352Z,27.97
2022-08-16T11:51:38.241Z,28.03
2022-08-16T11:52:38.197Z,28.10
2022-08-16T11:53:38.274Z,28.12
2022-08-16T11:54:38.145Z,28.16
2022-08-16T11:55:38.503Z,28.20
2022-08-16T11:56:51.516Z,28.30
2022-08-16T11:57:39.104Z,28.35
2022-08-16T11:58:38.107Z,28.40
2022-08-16T11:59:39.941Z,28.46
2022-08-16T12:00:50.382Z,28.47
2022-08-16T12:01:55.018Z,28.52
2022-08-16T12:02:39.074Z,28.50
2022-08-16T12:03:39.076Z,28.50
2022-08-16T12:04:38.101Z,28.53
2022-08-16T12:05:38.064Z,28.57
2022-08-16T12:06:37.993Z,28.57
2022-08-16T12:07:37.983Z,28.64
2022-08-16T12:08:38.017Z,28.68
2022-08-16T12:09:43.220Z,28.78
2022-08-16T12:10:38.936Z,28.78
2022-08-16T12:11:37.908Z,28.78
2022-08-16T12:12:37.956Z,28.86
2022-08-16T12:13:37.906Z,28.92
2022-08-16T12:14:37.878Z,29.00
2022-08-16T12:15:37.962Z,29.05
2022-08-16T12:16:37.868Z,29.09
2022-08-16T12:17:37.856Z,29.10
2022-08-16T12:18:37.859Z,29.13
2022-08-16T12:19:38.044Z,29.20
2022-08-16T12:20:37.827Z,29.24
2022-08-16T12:21:58.198Z,29.25
2022-08-16T12:22:38.769Z,29.32
2022-08-16T12:23:37.762Z,29.39
2022-08-16T12:24:37.749Z,29.49
2022-08-16T12:25:37.721Z,29.53
2022-08-16T12:26:37.717Z,29.58
2022-08-16T12:27:39.397Z,29.58
2022-08-16T12:28:55.935Z,29.59
2022-08-16T12:29:38.671Z,29.62
2022-08-16T12:30:38.733Z,29.62
2022-08-16T12:31:37.641Z,29.61
2022-08-16T12:32:41.748Z,29.62
2022-08-16T12:33:44.517Z,29.64
2022-08-16T12:34:38.631Z,29.64
2022-08-16T12:35:38.602Z,29.59
2022-08-16T12:36:37.601Z,29.50
2022-08-16T12:37:38.847Z,29.44
2022-08-16T12:38:41.463Z,29.42
2022-08-16T12:39:38.664Z,29.39
2022-08-16T12:40:38.589Z,29.39
2022-08-16T12:41:37.512Z,29.40
2022-08-16T12:42:38.517Z,29.40
2022-08-16T12:43:42.297Z,29.42
2022-08-16T12:44:38.525Z,29.40
2022-08-16T12:45:37.476Z,29.43
2022-08-16T12:46:37.453Z,29.42
2022-08-16T12:47:37.454Z,29.39
2022-08-16T12:48:37.452Z,29.40
2022-08-16T12:49:41.819Z,29.46
2022-08-16T12:50:38.394Z,29.50
2022-08-16T12:51:59.640Z,29.59
2022-08-16T12:52:44.448Z,29.73
2022-08-16T12:53:39.854Z,29.83
2022-08-16T12:54:37.336Z,29.86
2022-08-16T12:55:42.046Z,29.68
2022-08-16T12:56:38.347Z,29.49
2022-08-16T12:57:37.296Z,29.32
2022-08-16T12:58:49.392Z,29.16
2022-08-16T12:59:38.734Z,29.10
2022-08-16T13:00:37.345Z,29.27
2022-08-16T13:01:37.255Z,29.35
2022-08-16T13:02:37.288Z,29.39
2022-08-16T13:03:40.496Z,29.42
2022-08-16T13:04:37.219Z,29.44